createdAt,value
2019-02-22T00:00:02.893Z,95.41
2019-02-22T00:05:10.613Z,95.51
2019-02-22T00:10:12.855Z,95.54
2019-02-22T00:15:07.365Z,95.38
2019-02-22T00:20:07.131Z,95.44
2019-02-22T00:25:07.006Z,95.57
2019-02-22T00:30:02.541Z,95.7
2019-02-22T00:35:06.763Z,95.99
2019-02-22T00:40:07.500Z,96.02
2019-02-22T00:45:03.039Z,96.16
2019-02-22T00:50:05.817Z,96.23
2019-02-22T00:55:07.614Z,96.1
2019-02-22T01:00:03.209Z,95.77
2019-02-22T01:05:06.476Z,95.61
2019-02-22T01:10:06.925Z,96.03
2019-02-22T01:15:03.105Z,97.17
2019-02-22T01:20:06.377Z,98.05
2019-02-22T01:25:07.514Z,98.11
2019-02-22T01:30:02.973Z,98.29
2019-02-22T01:35:06.808Z,97.89
2019-02-22T01:40:08.042Z,99.05
2019-02-22T01:45:02.566Z,98.49
2019-02-22T01:50:05.884Z,98.56
2019-02-22T01:55:09.775Z,98.96
2019-02-22T02:00:07.381Z,99.03
2019-02-22T02:05:03.956Z,99.09
2019-02-22T02:10:03.284Z,99.08
2019-02-22T02:15:03.708Z,99.13
2019-02-22T02:20:06.859Z,99.16
2019-02-22T02:25:05.046Z,97.23
2019-02-22T02:30:04.309Z,97.27
2019-02-22T02:35:05.825Z,97.25
2019-02-22T02:40:08.942Z,97.36
2019-02-22T02:45:03.562Z,97.33
2019-02-22T02:50:07.198Z,97.37
2019-02-22T02:55:09.091Z,97.63
2019-02-22T03:00:03.825Z,97.67
2019-02-22T03:05:09.301Z,97.73
2019-02-22T03:10:07.715Z,99.77
2019-02-22T03:15:05.203Z,99.85
2019-02-22T03:20:08.341Z,99.86
2019-02-22T03:25:09.131Z,100
2019-02-22T03:30:10.467Z,98.13
2019-02-22T03:35:13.720Z,100.01
2019-02-22T03:40:09.995Z,99.98
2019-02-22T03:45:03.136Z,98.19
2019-02-22T03:50:11.409Z,98.31
2019-02-22T03:55:09.534Z,98.55
2019-02-22T04:00:07.975Z,98.39
2019-02-22T04:05:07.715Z,98.47
2019-02-22T04:10:08.617Z,98.17
2019-02-22T04:15:06.730Z,100.2
2019-02-22T04:20:10.766Z,98.05
2019-02-22T04:25:08.110Z,98.25
2019-02-22T04:30:03.733Z,98.11
2019-02-22T04:35:07.555Z,98.19
2019-02-22T04:40:07.414Z,98.49
2019-02-22T04:45:02.932Z,98.36
2019-02-22T04:50:06.257Z,98.21
2019-02-22T04:55:07.133Z,98.5
2019-02-22T05:00:02.733Z,98.37
2019-02-22T05:05:07.409Z,98.58
2019-02-22T05:10:04.795Z,98.66
2019-02-22T05:15:14.143Z,98.62
2019-02-22T05:20:07.143Z,98.78
2019-02-22T05:25:09.938Z,99.05
2019-02-22T05:30:03.631Z,99.11
2019-02-22T05:35:09.872Z,99.07
2019-02-22T05:40:07.843Z,99.03
2019-02-22T05:45:03.277Z,99.16
2019-02-22T05:50:12.299Z,99.08
2019-02-22T05:55:07.647Z,99.08
2019-02-22T06:00:03.131Z,98.92
2019-02-22T06:05:06.283Z,99.1
2019-02-22T06:10:07.202Z,99.33
2019-02-22T06:15:02.803Z,99.11
2019-02-22T06:20:08.322Z,99.13
2019-02-22T06:25:08.962Z,99.27
2019-02-22T06:30:02.538Z,99.08
2019-02-22T06:35:09.517Z,99.19
2019-02-22T06:40:06.123Z,99.18
2019-02-22T06:45:02.621Z,99.4
2019-02-22T06:50:04.363Z,99.27
2019-02-22T06:55:04.121Z,99.46
2019-02-22T07:00:02.662Z,99.4
2019-02-22T07:05:04.530Z,99.46
2019-02-22T07:10:04.378Z,99.69
2019-02-22T07:15:03.420Z,99.69
2019-02-22T07:20:06.591Z,99.68
2019-02-22T07:25:09.967Z,99.85
2019-02-22T07:30:03.576Z,99.62
2019-02-22T07:35:09.756Z,99.52
2019-02-22T07:40:07.194Z,99.66
2019-02-22T07:45:03.855Z,99.61
2019-02-22T07:50:08.373Z,99.68
2019-02-22T07:55:08.431Z,99.64
2019-02-22T08:00:04.466Z,99.79
2019-02-22T08:05:09.112Z,99.81
2019-02-22T08:10:06.068Z,99.94
2019-02-22T08:15:03.872Z,99.95
2019-02-22T08:20:06.468Z,99.84
2019-02-22T08:25:07.516Z,99.77
2019-02-22T08:30:04.062Z,99.85
2019-02-22T08:35:06.080Z,99.75
2019-02-22T08:40:06.809Z,99.77
2019-02-22T08:45:04.483Z,99.68
2019-02-22T08:50:07.986Z,99.64
2019-02-22T08:55:09.607Z,99.61
2019-02-22T09:00:04.361Z,99.79
2019-02-22T09:05:07.543Z,99.87
2019-02-22T09:10:16.619Z,99.85
2019-02-22T09:15:10.311Z,99.95
2019-02-22T09:20:09.172Z,99.88
2019-02-22T09:25:11.824Z,99.81
2019-02-22T09:30:09.112Z,99.51
2019-02-22T09:35:12.510Z,99.64
2019-02-22T09:40:16.988Z,99.5
2019-02-22T09:45:04.681Z,99.45
2019-02-22T09:50:12.592Z,99.5
2019-02-22T09:55:10.098Z,99.53
2019-02-22T10:00:08.228Z,99.42
2019-02-22T10:05:07.638Z,99.41
2019-02-22T10:10:07.740Z,99.55
2019-02-22T10:15:04.016Z,99.35
2019-02-22T10:20:05.784Z,99.56
2019-02-22T10:25:07.499Z,99.19
2019-02-22T10:30:03.034Z,99.3
2019-02-22T10:35:05.925Z,99.24
2019-02-22T10:40:06.342Z,98.98
2019-02-22T10:45:02.859Z,99.01
2019-02-22T10:50:06.432Z,99.01
2019-02-22T10:55:05.139Z,98.77
2019-02-22T11:00:02.997Z,98.53
2019-02-22T11:05:05.106Z,98.23
2019-02-22T11:10:05.379Z,99.98
2019-02-22T11:15:02.880Z,96.8
2019-02-22T11:20:06.241Z,98.98
2019-02-22T11:25:08.641Z,98.29
2019-02-22T11:30:05.267Z,96.14
2019-02-22T11:35:09.062Z,98.49
2019-02-22T11:40:06.576Z,96.48
2019-02-22T11:45:03.666Z,95.48
2019-02-22T11:50:07.166Z,94.05
2019-02-22T11:55:05.558Z,95.14
2019-02-22T12:00:03.583Z,93.92
2019-02-22T12:05:06.086Z,93.86
2019-02-22T12:10:03.224Z,93.03
2019-02-22T12:15:05.511Z,91.04
2019-02-22T12:20:05.323Z,91.54
2019-02-22T12:25:05.990Z,90.3
2019-02-22T12:30:03.081Z,89.75
2019-02-22T12:35:05.148Z,89.17
2019-02-22T12:40:05.337Z,88.56
2019-02-22T12:45:04.257Z,88.94
2019-02-22T12:50:05.749Z,87.3
2019-02-22T12:55:07.466Z,83.82
2019-02-22T13:00:04.148Z,85.43
2019-02-22T13:05:06.811Z,87.46
2019-02-22T13:10:10.195Z,87.95
2019-02-22T13:15:14.916Z,88.14
2019-02-22T13:20:07.287Z,88.37
2019-02-22T13:25:10.768Z,88.62
2019-02-22T13:30:04.474Z,89.73
2019-02-22T13:35:10.918Z,87.72
2019-02-22T13:40:07.420Z,86.12
2019-02-22T13:45:04.098Z,87.49
2019-02-22T13:50:07.151Z,86.51
2019-02-22T13:55:05.836Z,84.47
2019-02-22T14:00:04.379Z,85.72
2019-02-22T14:05:06.801Z,83.14
2019-02-22T14:10:06.682Z,82.78
2019-02-22T14:15:04.023Z,84.04
2019-02-22T14:20:06.563Z,85.1
2019-02-22T14:25:07.073Z,85.84
2019-02-22T14:30:03.784Z,82.56
2019-02-22T14:35:06.378Z,80.74
2019-02-22T14:40:06.817Z,80.25
2019-02-22T14:45:04.440Z,80.96
2019-02-22T14:50:06.019Z,77.26
2019-02-22T14:55:06.494Z,78.05
2019-02-22T15:00:03.523Z,78.33
2019-02-22T15:05:06.201Z,75.97
2019-02-22T15:10:06.673Z,77.19
2019-02-22T15:15:04.321Z,78.5
2019-02-22T15:20:06.628Z,78.96
2019-02-22T15:25:09.653Z,80.89
2019-02-22T15:30:03.840Z,80.2
2019-02-22T15:35:06.444Z,80.48
2019-02-22T15:40:09.403Z,81.12
2019-02-22T15:45:03.598Z,82.91
2019-02-22T15:50:07.088Z,82.89
2019-02-22T15:55:08.914Z,83.58
2019-02-22T16:00:02.513Z,83.58
2019-02-22T16:05:07.164Z,84.19
2019-02-22T16:10:08.749Z,84.11
2019-02-22T16:15:03.225Z,84.37
2019-02-22T16:20:09.036Z,86.33
2019-02-22T16:25:18.953Z,87.69
2019-02-22T16:30:02.719Z,86.65
2019-02-22T16:35:07.160Z,87.01
2019-02-22T16:40:06.162Z,88.21
2019-02-22T16:45:05.033Z,87.91
2019-02-22T16:50:05.618Z,89.08
2019-02-22T16:55:05.579Z,89.51
2019-02-22T17:00:03.039Z,89.97
2019-02-22T17:05:05.622Z,90.89
2019-02-22T17:10:05.931Z,90.87
2019-02-22T17:15:02.499Z,91.13
2019-02-22T17:20:05.634Z,91.8
2019-02-22T17:25:06.252Z,92.19
2019-02-22T17:30:02.799Z,92.33
2019-02-22T17:35:05.429Z,92.78
2019-02-22T17:40:07.267Z,92.87
2019-02-22T17:45:03.414Z,93.05
2019-02-22T17:50:06.554Z,93.34
2019-02-22T17:55:06.788Z,94
2019-02-22T18:00:03.880Z,94.22
2019-02-22T18:05:06.772Z,94.11
2019-02-22T18:10:06.429Z,93.4
2019-02-22T18:15:03.484Z,92.65
2019-02-22T18:20:06.028Z,92.12
2019-02-22T18:25:06.875Z,92.19
2019-02-22T18:30:03.973Z,91.77
2019-02-22T18:35:05.716Z,91.63
2019-02-22T18:40:05.859Z,91.39
2019-02-22T18:45:03.888Z,91.88
2019-02-22T18:50:06.028Z,91.39
2019-02-22T18:55:06.793Z,90.87
2019-02-22T19:00:04.323Z,90.34
2019-02-22T19:05:06.370Z,89.18
2019-02-22T19:10:07.178Z,88.31
2019-02-22T19:15:03.755Z,87.45
2019-02-22T19:20:08.323Z,87.35
2019-02-22T19:25:07.471Z,87.42
2019-02-22T19:30:04.041Z,86.62
2019-02-22T19:35:05.845Z,86.38
2019-02-22T19:40:07.325Z,86.72
2019-02-22T19:45:03.929Z,86.82
2019-02-22T19:50:05.823Z,87.19
2019-02-22T19:55:07.170Z,87
2019-02-22T20:00:03.938Z,86.92
2019-02-22T20:05:06.279Z,87.33
2019-02-22T20:10:16.998Z,87.62
2019-02-22T20:15:04.110Z,87.67
2019-02-22T20:20:05.940Z,87.73
2019-02-22T20:25:07.036Z,87.89
2019-02-22T20:30:03.730Z,89.75
2019-02-22T20:35:06.396Z,89.55
2019-02-22T20:40:07.086Z,89.56
2019-02-22T20:45:03.686Z,88.62
2019-02-22T20:50:06.818Z,88.04
2019-02-22T20:55:07.481Z,87.7
2019-02-22T21:00:03.985Z,87.62
2019-02-22T21:05:05.951Z,86.61
2019-02-22T21:10:06.174Z,86.24
2019-02-22T21:15:04.071Z,86.08
2019-02-22T21:20:05.948Z,86.04
2019-02-22T21:25:07.070Z,86.46
2019-02-22T21:30:03.551Z,86.72
2019-02-22T21:35:06.817Z,86.91
2019-02-22T21:40:07.286Z,87.2
2019-02-22T21:45:03.391Z,87.14
2019-02-22T21:50:06.789Z,87.1
2019-02-22T21:55:07.471Z,86.94
2019-02-22T22:00:03.069Z,86.65
2019-02-22T22:05:06.683Z,86.46
2019-02-22T22:10:07.434Z,86.11
2019-02-22T22:15:03.547Z,85.88
2019-02-22T22:20:06.879Z,85.72
2019-02-22T22:25:09.067Z,86.32
2019-02-22T22:30:02.615Z,87.56
2019-02-22T22:35:07.111Z,88.39
2019-02-22T22:40:09.405Z,89.36
2019-02-22T22:45:05.714Z,90.98
2019-02-22T22:50:06.533Z,91.83
2019-02-22T22:55:09.678Z,90.71
2019-02-22T23:00:03.163Z,89.06
2019-02-22T23:05:09.783Z,88.05
2019-02-22T23:10:09.376Z,87.81
2019-02-22T23:15:02.834Z,87.3
2019-02-22T23:20:09.316Z,86.45
2019-02-22T23:25:06.114Z,86.24
2019-02-22T23:30:02.598Z,85.85
2019-02-22T23:35:07.436Z,85.59
2019-02-22T23:40:05.909Z,85.92
2019-02-22T23:45:03.368Z,85.71
2019-02-22T23:50:05.762Z,85.62
2019-02-22T23:55:06.297Z,85.82
